Nautilus — P3QQ7 — position and weather

sailwx.info

Track history (hours):
 
Tides and Currents Weather Stations Pressure Air Temp Water Temp Dewpoint Dewpoint Depression Visibility Wind Speed Wind Dir Waves Ship Positions

Nautilus

Last reported at 2015-Apr-18 17:25 UTC. Time now 2015-Apr-21 01:23 UTC.
Position N 44°51' E 036°37'.

Length 176 m; draft 7.3 m.

Type: Tanker. MMSI: 212434000.

Date/timePositionNaut miles runAvg speedWind from/ knotsBaromVisibWave heightAir tempDewpointWater temp
2015-Apr-18 17:25N 44°51' E 036°37'0 0.0
2015-Apr-18 16:28N 44°51' E 036°37'17 0.5
2015-Apr-17 06:33N 44°43' E 036°16'1212.3
2015-Apr-17 05:33N 44°36' E 036°02'1312.6
2015-Apr-17 04:33N 44°29' E 035°48'1312.6
2015-Apr-17 03:34N 44°22' E 035°33'1211.8
2015-Apr-17 02:33N 44°15' E 035°20'1211.6
2015-Apr-17 01:33N 44°09' E 035°06'1211.7
2015-Apr-17 00:33N 44°02' E 034°53'1211.8
2015-Apr-16 23:33N 43°56' E 034°39'1211.9
2015-Apr-16 22:34N 43°49' E 034°26'308 8.3
2015-Apr-15 09:27N 40°44' E 028°52'1 0.6
2015-Apr-15 08:09N 40°45' E 028°52'0 0.4
2015-Apr-15 07:21N 40°45' E 028°52'1 1.1
2015-Apr-15 06:30N 40°46' E 028°52'3 0.2
2015-Apr-14 12:13N 40°48' E 028°49'3 0.5
2015-Apr-14 07:07N 40°48' E 028°45'1 0.6
2015-Apr-14 06:19N 40°47' E 028°45'1 0.6
2015-Apr-14 05:31N 40°47' E 028°45'1 0.6
2015-Apr-14 04:31N 40°46' E 028°44'1 0.7
2015-Apr-14 03:26N 40°46' E 028°44'1 0.4
2015-Apr-14 00:05N 40°44' E 028°45'0 0.1
2015-Apr-13 23:17N 40°44' E 028°45'1 0.2
2015-Apr-13 17:23N 40°45' E 028°45'0 0.4
2015-Apr-13 16:23N 40°46' E 028°45'2 0.5
2015-Apr-13 13:29N 40°47' E 028°44'2 0.7
2015-Apr-13 10:11N 40°48' E 028°41'  
Track history (hours):
 
Tides and Currents Weather Stations Pressure Air Temp Water Temp Dewpoint Dewpoint Depression Visibility Wind Speed Wind Dir Waves Ship Positions

Nautilus

Last reported at 2015-Apr-18 17:25 UTC. Time now 2015-Apr-21 01:23 UTC.
Position N 44°51' E 036°37'.

Length 176 m; draft 7.3 m.

Type: Tanker. MMSI: 212434000.

Date/timePositionNaut miles runAvg speedWind from/ knotsBaromVisibWave heightAir tempDewpointWater temp
2015-Apr-18 17:25N 44°51' E 036°37'0 0.0
2015-Apr-18 16:28N 44°51' E 036°37'17 0.5
2015-Apr-17 06:33N 44°43' E 036°16'1212.3
2015-Apr-17 05:33N 44°36' E 036°02'1312.6
2015-Apr-17 04:33N 44°29' E 035°48'1312.6
2015-Apr-17 03:34N 44°22' E 035°33'1211.8
2015-Apr-17 02:33N 44°15' E 035°20'1211.6
2015-Apr-17 01:33N 44°09' E 035°06'1211.7
2015-Apr-17 00:33N 44°02' E 034°53'1211.8
2015-Apr-16 23:33N 43°56' E 034°39'1211.9
2015-Apr-16 22:34N 43°49' E 034°26'308 8.3
2015-Apr-15 09:27N 40°44' E 028°52'1 0.6
2015-Apr-15 08:09N 40°45' E 028°52'0 0.4
2015-Apr-15 07:21N 40°45' E 028°52'1 1.1
2015-Apr-15 06:30N 40°46' E 028°52'3 0.2
2015-Apr-14 12:13N 40°48' E 028°49'3 0.5
2015-Apr-14 07:07N 40°48' E 028°45'1 0.6
2015-Apr-14 06:19N 40°47' E 028°45'1 0.6
2015-Apr-14 05:31N 40°47' E 028°45'1 0.6
2015-Apr-14 04:31N 40°46' E 028°44'1 0.7
2015-Apr-14 03:26N 40°46' E 028°44'1 0.4
2015-Apr-14 00:05N 40°44' E 028°45'0 0.1
2015-Apr-13 23:17N 40°44' E 028°45'1 0.2
2015-Apr-13 17:23N 40°45' E 028°45'0 0.4
2015-Apr-13 16:23N 40°46' E 028°45'2 0.5
2015-Apr-13 13:29N 40°47' E 028°44'2 0.7
2015-Apr-13 10:11N 40°48' E 028°41'  

Dump ship's entire track history